sensor_id;sensor_type;location;lat;lon;timestamp;temperature;humidity
21508;DHT22;10915;54.352;9.074;2023-02-03T00:01:53;7.20;99.90
21508;DHT22;10915;54.352;9.074;2023-02-03T00:04:19;7.20;99.90
21508;DHT22;10915;54.352;9.074;2023-02-03T00:06:45;7.20;99.90
21508;DHT22;10915;54.352;9.074;2023-02-03T00:09:11;7.20;99.90
21508;DHT22;10915;54.352;9.074;2023-02-03T00:11:37;7.20;99.90
21508;DHT22;10915;54.352;9.074;2023-02-03T00:14:03;7.20;99.90
21508;DHT22;10915;54.352;9.074;2023-02-03T00:16:30;7.20;99.90
21508;DHT22;10915;54.352;9.074;2023-02-03T00:18:55;7.20;99.90
21508;DHT22;10915;54.352;9.074;2023-02-03T00:21:21;7.20;99.90
21508;DHT22;10915;54.352;9.074;2023-02-03T00:23:47;7.20;99.90
21508;DHT22;10915;54.352;9.074;2023-02-03T00:26:15;7.20;99.90
21508;DHT22;10915;54.352;9.074;2023-02-03T00:28:41;7.20;99.90
21508;DHT22;10915;54.352;9.074;2023-02-03T00:31:18;7.20;99.90
21508;DHT22;10915;54.352;9.074;2023-02-03T00:33:44;7.20;99.90
21508;DHT22;10915;54.352;9.074;2023-02-03T00:36:10;7.30;99.90
21508;DHT22;10915;54.352;9.074;2023-02-03T00:38:36;7.30;99.90
21508;DHT22;10915;54.352;9.074;2023-02-03T00:41:05;7.30;99.90
21508;DHT22;10915;54.352;9.074;2023-02-03T00:43:31;7.30;99.90
21508;DHT22;10915;54.352;9.074;2023-02-03T00:45:57;7.30;99.90
21508;DHT22;10915;54.352;9.074;2023-02-03T00:48:22;7.30;99.90
21508;DHT22;10915;54.352;9.074;2023-02-03T00:50:49;7.40;99.90
21508;DHT22;10915;54.352;9.074;2023-02-03T00:53:16;7.40;99.90
21508;DHT22;10915;54.352;9.074;2023-02-03T00:55:43;7.40;99.90
21508;DHT22;10915;54.352;9.074;2023-02-03T00:58:08;7.40;99.90
21508;DHT22;10915;54.352;9.074;2023-02-03T01:00:34;7.40;99.90
21508;DHT22;10915;54.352;9.074;2023-02-03T01:03:00;7.40;99.90
21508;DHT22;10915;54.352;9.074;2023-02-03T01:05:26;7.40;99.90
21508;DHT22;10915;54.352;9.074;2023-02-03T01:07:51;7.40;99.90
21508;DHT22;10915;54.352;9.074;2023-02-03T01:10:17;7.40;99.90
21508;DHT22;10915;54.352;9.074;2023-02-03T01:12:43;7.40;99.90
21508;DHT22;10915;54.352;9.074;2023-02-03T01:15:08;7.50;99.90
21508;DHT22;10915;54.352;9.074;2023-02-03T01:17:34;7.50;99.90
21508;DHT22;10915;54.352;9.074;2023-02-03T01:20:00;7.50;99.90
21508;DHT22;10915;54.352;9.074;2023-02-03T01:22:28;7.50;99.90
21508;DHT22;10915;54.352;9.074;2023-02-03T01:24:54;7.50;99.90
21508;DHT22;10915;54.352;9.074;2023-02-03T01:27:21;7.50;99.90
21508;DHT22;10915;54.352;9.074;2023-02-03T01:29:46;7.50;99.90
21508;DHT22;10915;54.352;9.074;2023-02-03T01:32:12;7.50;99.90
21508;DHT22;10915;54.352;9.074;2023-02-03T01:34:38;7.50;99.90
21508;DHT22;10915;54.352;9.074;2023-02-03T01:37:03;7.50;99.90
21508;DHT22;10915;54.352;9.074;2023-02-03T01:39:29;7.50;99.90
21508;DHT22;10915;54.352;9.074;2023-02-03T01:41:55;7.50;99.90
21508;DHT22;10915;54.352;9.074;2023-02-03T01:44:54;7.50;99.90
21508;DHT22;10915;54.352;9.074;2023-02-03T01:47:42;7.50;99.90
21508;DHT22;10915;54.352;9.074;2023-02-03T01:50:21;7.50;99.90
21508;DHT22;10915;54.352;9.074;2023-02-03T01:52:56;7.50;99.90
21508;DHT22;10915;54.352;9.074;2023-02-03T01:55:26;7.50;99.90
21508;DHT22;10915;54.352;9.074;2023-02-03T01:58:03;7.60;99.90
21508;DHT22;10915;54.352;9.074;2023-02-03T02:00:31;7.50;99.90
21508;DHT22;10915;54.352;9.074;2023-02-03T02:02:58;7.50;99.90
21508;DHT22;10915;54.352;9.074;2023-02-03T02:05:26;7.50;99.90
21508;DHT22;10915;54.352;9.074;2023-02-03T02:07:52;7.50;99.90
21508;DHT22;10915;54.352;9.074;2023-02-03T02:10:19;7.50;99.90
21508;DHT22;10915;54.352;9.074;2023-02-03T02:12:46;7.50;99.90
21508;DHT22;10915;54.352;9.074;2023-02-03T02:15:11;7.50;99.90
21508;DHT22;10915;54.352;9.074;2023-02-03T02:17:55;7.50;99.90
21508;DHT22;10915;54.352;9.074;2023-02-03T02:20:55;7.50;99.90
21508;DHT22;10915;54.352;9.074;2023-02-03T02:26:47;7.60;99.90
21508;DHT22;10915;54.352;9.074;2023-02-03T02:31:59;7.60;99.90
21508;DHT22;10915;54.352;9.074;2023-02-03T02:40:09;7.60;99.90
21508;DHT22;10915;54.352;9.074;2023-02-03T02:42:53;7.60;99.90
21508;DHT22;10915;54.352;9.074;2023-02-03T02:45:28;7.60;99.90
21508;DHT22;10915;54.352;9.074;2023-02-03T02:48:06;7.60;99.90
21508;DHT22;10915;54.352;9.074;2023-02-03T02:50:44;7.60;99.90
21508;DHT22;10915;54.352;9.074;2023-02-03T02:53:12;7.60;99.90
21508;DHT22;10915;54.352;9.074;2023-02-03T02:55:40;7.60;99.90
21508;DHT22;10915;54.352;9.074;2023-02-03T02:58:10;7.60;99.90
21508;DHT22;10915;54.352;9.074;2023-02-03T03:00:37;7.60;99.90
21508;DHT22;10915;54.352;9.074;2023-02-03T03:03:23;7.60;99.90
21508;DHT22;10915;54.352;9.074;2023-02-03T03:05:55;7.60;99.90
21508;DHT22;10915;54.352;9.074;2023-02-03T03:08:36;7.60;99.90
21508;DHT22;10915;54.352;9.074;2023-02-03T03:11:03;7.60;99.90
21508;DHT22;10915;54.352;9.074;2023-02-03T03:13:33;7.60;99.90
21508;DHT22;10915;54.352;9.074;2023-02-03T03:16:01;7.70;99.90
21508;DHT22;10915;54.352;9.074;2023-02-03T03:18:35;7.60;99.90
21508;DHT22;10915;54.352;9.074;2023-02-03T03:21:04;7.70;99.90
21508;DHT22;10915;54.352;9.074;2023-02-03T03:23:37;7.70;99.90
21508;DHT22;10915;54.352;9.074;2023-02-03T03:26:17;7.70;99.90
21508;DHT22;10915;54.352;9.074;2023-02-03T03:28:51;7.70;99.90
21508;DHT22;10915;54.352;9.074;2023-02-03T03:31:19;7.70;99.90
21508;DHT22;10915;54.352;9.074;2023-02-03T03:33:45;7.70;99.90
21508;DHT22;10915;54.352;9.074;2023-02-03T03:36:30;7.70;99.90
21508;DHT22;10915;54.352;9.074;2023-02-03T03:39:50;7.60;99.90
21508;DHT22;10915;54.352;9.074;2023-02-03T03:42:27;7.60;99.90
21508;DHT22;10915;54.352;9.074;2023-02-03T03:45:08;7.60;99.90
21508;DHT22;10915;54.352;9.074;2023-02-03T03:50:28;7.60;99.90
21508;DHT22;10915;54.352;9.074;2023-02-03T03:52:57;7.60;99.90
21508;DHT22;10915;54.352;9.074;2023-02-03T03:55:27;7.60;99.90
21508;DHT22;10915;54.352;9.074;2023-02-03T03:58:03;7.60;99.90
21508;DHT22;10915;54.352;9.074;2023-02-03T04:00:32;7.60;99.90
21508;DHT22;10915;54.352;9.074;2023-02-03T04:03:04;7.60;99.90
21508;DHT22;10915;54.352;9.074;2023-02-03T04:05:32;7.60;99.90
21508;DHT22;10915;54.352;9.074;2023-02-03T04:07:58;7.60;99.90
21508;DHT22;10915;54.352;9.074;2023-02-03T04:12:53;7.60;99.90
21508;DHT22;10915;54.352;9.074;2023-02-03T04:15:19;7.60;99.90
21508;DHT22;10915;54.352;9.074;2023-02-03T04:17:44;7.60;99.90
21508;DHT22;10915;54.352;9.074;2023-02-03T04:20:10;7.60;99.90
21508;DHT22;10915;54.352;9.074;2023-02-03T04:22:36;7.60;99.90
21508;DHT22;10915;54.352;9.074;2023-02-03T04:25:02;7.60;99.90
21508;DHT22;10915;54.352;9.074;2023-02-03T04:27:28;7.70;99.90
21508;DHT22;10915;54.352;9.074;2023-02-03T04:29:53;7.60;99.90
21508;DHT22;10915;54.352;9.074;2023-02-03T04:32:19;7.70;99.90
21508;DHT22;10915;54.352;9.074;2023-02-03T04:34:45;7.60;99.90
21508;DHT22;10915;54.352;9.074;2023-02-03T04:37:11;7.70;99.90
21508;DHT22;10915;54.352;9.074;2023-02-03T04:39:36;7.70;99.90
21508;DHT22;10915;54.352;9.074;2023-02-03T04:42:02;7.70;99.90
21508;DHT22;10915;54.352;9.074;2023-02-03T04:44:28;7.70;99.90
21508;DHT22;10915;54.352;9.074;2023-02-03T04:46:53;7.70;99.90
21508;DHT22;10915;54.352;9.074;2023-02-03T04:49:19;7.70;99.90
21508;DHT22;10915;54.352;9.074;2023-02-03T04:51:47;7.80;99.90
21508;DHT22;10915;54.352;9.074;2023-02-03T04:54:13;7.80;99.90
21508;DHT22;10915;54.352;9.074;2023-02-03T04:56:39;7.80;99.90
21508;DHT22;10915;54.352;9.074;2023-02-03T04:59:04;7.80;99.90
21508;DHT22;10915;54.352;9.074;2023-02-03T05:01:30;7.80;99.90
21508;DHT22;10915;54.352;9.074;2023-02-03T05:03:56;7.80;99.90
21508;DHT22;10915;54.352;9.074;2023-02-03T05:06:26;7.80;99.90
21508;DHT22;10915;54.352;9.074;2023-02-03T05:08:53;7.80;99.90
21508;DHT22;10915;54.352;9.074;2023-02-03T05:11:19;7.80;99.90
21508;DHT22;10915;54.352;9.074;2023-02-03T05:13:45;7.80;99.90
21508;DHT22;10915;54.352;9.074;2023-02-03T05:16:10;7.80;99.90
21508;DHT22;10915;54.352;9.074;2023-02-03T05:18:36;7.80;99.90
21508;DHT22;10915;54.352;9.074;2023-02-03T05:21:02;7.80;99.90
21508;DHT22;10915;54.352;9.074;2023-02-03T05:23:27;7.80;99.90
21508;DHT22;10915;54.352;9.074;2023-02-03T05:25:53;7.80;99.90
21508;DHT22;10915;54.352;9.074;2023-02-03T05:28:18;7.80;99.90
21508;DHT22;10915;54.352;9.074;2023-02-03T05:30:50;7.80;99.90
21508;DHT22;10915;54.352;9.074;2023-02-03T05:33:16;7.80;99.90
21508;DHT22;10915;54.352;9.074;2023-02-03T05:35:42;7.90;99.90
21508;DHT22;10915;54.352;9.074;2023-02-03T05:38:07;7.90;99.90
21508;DHT22;10915;54.352;9.074;2023-02-03T05:40:33;7.90;99.90
21508;DHT22;10915;54.352;9.074;2023-02-03T05:43:18;7.90;99.90
21508;DHT22;10915;54.352;9.074;2023-02-03T05:45:44;7.90;99.90
21508;DHT22;10915;54.352;9.074;2023-02-03T05:48:10;8.00;99.90
21508;DHT22;10915;54.352;9.074;2023-02-03T05:50:36;8.00;99.90
21508;DHT22;10915;54.352;9.074;2023-02-03T05:53:04;8.00;99.90
21508;DHT22;10915;54.352;9.074;2023-02-03T05:55:30;8.00;99.90
21508;DHT22;10915;54.352;9.074;2023-02-03T05:57:56;8.00;99.90
21508;DHT22;10915;54.352;9.074;2023-02-03T06:00:22;8.00;99.90
21508;DHT22;10915;54.352;9.074;2023-02-03T06:02:53;8.00;99.90
21508;DHT22;10915;54.352;9.074;2023-02-03T07:49:51;7.70;99.90
21508;DHT22;10915;54.352;9.074;2023-02-03T07:52:16;7.60;99.90
21508;DHT22;10915;54.352;9.074;2023-02-03T07:54:42;7.60;99.90
21508;DHT22;10915;54.352;9.074;2023-02-03T07:57:08;7.60;99.90
21508;DHT22;10915;54.352;9.074;2023-02-03T07:59:33;7.60;99.90
21508;DHT22;10915;54.352;9.074;2023-02-03T08:01:59;7.60;99.90
21508;DHT22;10915;54.352;9.074;2023-02-03T08:04:25;7.60;99.90
21508;DHT22;10915;54.352;9.074;2023-02-03T08:06:50;7.60;99.90
21508;DHT22;10915;54.352;9.074;2023-02-03T08:09:16;7.60;99.90
21508;DHT22;10915;54.352;9.074;2023-02-03T08:11:42;7.60;99.90
21508;DHT22;10915;54.352;9.074;2023-02-03T08:14:07;7.60;99.90
21508;DHT22;10915;54.352;9.074;2023-02-03T08:16:33;7.60;99.90
21508;DHT22;10915;54.352;9.074;2023-02-03T08:18:59;7.60;99.90
21508;DHT22;10915;54.352;9.074;2023-02-03T08:21:25;7.60;99.90
21508;DHT22;10915;54.352;9.074;2023-02-03T08:23:50;7.60;99.90
21508;DHT22;10915;54.352;9.074;2023-02-03T08:26:16;7.50;99.90
21508;DHT22;10915;54.352;9.074;2023-02-03T08:28:42;7.50;99.90
21508;DHT22;10915;54.352;9.074;2023-02-03T08:31:11;7.50;99.90
21508;DHT22;10915;54.352;9.074;2023-02-03T08:33:37;7.50;99.90
21508;DHT22;10915;54.352;9.074;2023-02-03T08:36:08;7.60;99.90
21508;DHT22;10915;54.352;9.074;2023-02-03T08:38:36;7.60;99.90
21508;DHT22;10915;54.352;9.074;2023-02-03T08:41:10;7.60;99.90
21508;DHT22;10915;54.352;9.074;2023-02-03T08:43:37;7.60;99.90
21508;DHT22;10915;54.352;9.074;2023-02-03T08:46:05;7.60;99.90
21508;DHT22;10915;54.352;9.074;2023-02-03T08:48:32;7.60;99.90
21508;DHT22;10915;54.352;9.074;2023-02-03T08:50:58;7.60;99.90
21508;DHT22;10915;54.352;9.074;2023-02-03T08:53:24;7.60;99.90
21508;DHT22;10915;54.352;9.074;2023-02-03T08:55:50;7.60;99.90
21508;DHT22;10915;54.352;9.074;2023-02-03T08:58:15;7.60;99.90
21508;DHT22;10915;54.352;9.074;2023-02-03T09:00:43;7.60;99.90
21508;DHT22;10915;54.352;9.074;2023-02-03T09:03:09;7.60;99.90
21508;DHT22;10915;54.352;9.074;2023-02-03T09:05:35;7.60;99.90
21508;DHT22;10915;54.352;9.074;2023-02-03T09:08:01;7.60;99.90
21508;DHT22;10915;54.352;9.074;2023-02-03T09:10:27;7.60;99.90
21508;DHT22;10915;54.352;9.074;2023-02-03T09:12:53;7.60;99.90
21508;DHT22;10915;54.352;9.074;2023-02-03T09:15:19;7.60;99.90
21508;DHT22;10915;54.352;9.074;2023-02-03T09:17:44;7.60;99.90
21508;DHT22;10915;54.352;9.074;2023-02-03T09:20:11;7.60;99.90
21508;DHT22;10915;54.352;9.074;2023-02-03T09:22:39;7.60;99.90
21508;DHT22;10915;54.352;9.074;2023-02-03T09:25:05;7.50;99.90
21508;DHT22;10915;54.352;9.074;2023-02-03T09:27:31;7.60;99.90
21508;DHT22;10915;54.352;9.074;2023-02-03T09:29:57;7.60;99.90
21508;DHT22;10915;54.352;9.074;2023-02-03T09:32:23;7.50;99.90
21508;DHT22;10915;54.352;9.074;2023-02-03T09:34:49;7.50;99.90
21508;DHT22;10915;54.352;9.074;2023-02-03T09:37:15;7.50;99.90
21508;DHT22;10915;54.352;9.074;2023-02-03T09:39:41;7.50;99.90
21508;DHT22;10915;54.352;9.074;2023-02-03T09:47:40;7.40;99.90
21508;DHT22;10915;54.352;9.074;2023-02-03T09:50:19;7.40;99.90
21508;DHT22;10915;54.352;9.074;2023-02-03T09:52:46;7.50;99.90
21508;DHT22;10915;54.352;9.074;2023-02-03T09:55:48;7.50;99.90
21508;DHT22;10915;54.352;9.074;2023-02-03T09:58:16;7.40;99.90
21508;DHT22;10915;54.352;9.074;2023-02-03T10:01:04;7.50;99.90
21508;DHT22;10915;54.352;9.074;2023-02-03T10:06:37;7.60;99.90
21508;DHT22;10915;54.352;9.074;2023-02-03T10:09:14;7.80;99.90
21508;DHT22;10915;54.352;9.074;2023-02-03T10:22:48;8.00;99.90
21508;DHT22;10915;54.352;9.074;2023-02-03T10:28:18;7.90;99.90
21508;DHT22;10915;54.352;9.074;2023-02-03T10:30:53;7.90;99.90
21508;DHT22;10915;54.352;9.074;2023-02-03T10:33:23;7.90;99.90
21508;DHT22;10915;54.352;9.074;2023-02-03T10:41:15;8.00;99.90
21508;DHT22;10915;54.352;9.074;2023-02-03T10:43:41;8.00;99.90
21508;DHT22;10915;54.352;9.074;2023-02-03T10:46:15;8.00;99.90
21508;DHT22;10915;54.352;9.074;2023-02-03T10:48:41;8.00;99.90
21508;DHT22;10915;54.352;9.074;2023-02-03T10:51:27;8.00;99.90
21508;DHT22;10915;54.352;9.074;2023-02-03T10:53:57;8.00;99.90
21508;DHT22;10915;54.352;9.074;2023-02-03T10:58:58;7.90;99.90
21508;DHT22;10915;54.352;9.074;2023-02-03T11:04:05;7.90;99.90
21508;DHT22;10915;54.352;9.074;2023-02-03T11:06:32;7.90;99.90
21508;DHT22;10915;54.352;9.074;2023-02-03T11:08:59;8.00;99.90
21508;DHT22;10915;54.352;9.074;2023-02-03T11:11:30;8.00;99.90
21508;DHT22;10915;54.352;9.074;2023-02-03T11:16:33;8.00;99.90
21508;DHT22;10915;54.352;9.074;2023-02-03T11:19:09;8.00;99.90
21508;DHT22;10915;54.352;9.074;2023-02-03T11:21:44;8.00;99.90
21508;DHT22;10915;54.352;9.074;2023-02-03T11:24:17;8.00;99.90
21508;DHT22;10915;54.352;9.074;2023-02-03T11:31:51;8.20;99.90
21508;DHT22;10915;54.352;9.074;2023-02-03T11:34:23;8.30;99.90
21508;DHT22;10915;54.352;9.074;2023-02-03T11:36:50;8.30;99.90
21508;DHT22;10915;54.352;9.074;2023-02-03T11:39:28;8.30;99.90
21508;DHT22;10915;54.352;9.074;2023-02-03T11:41:54;8.30;99.90
21508;DHT22;10915;54.352;9.074;2023-02-03T11:44:23;8.30;99.90
21508;DHT22;10915;54.352;9.074;2023-02-03T11:47:00;8.20;99.90
21508;DHT22;10915;54.352;9.074;2023-02-03T11:57:54;8.40;99.90
21508;DHT22;10915;54.352;9.074;2023-02-03T12:00:47;8.40;99.90
21508;DHT22;10915;54.352;9.074;2023-02-03T12:06:03;8.50;99.90
21508;DHT22;10915;54.352;9.074;2023-02-03T12:08:43;8.40;99.90
21508;DHT22;10915;54.352;9.074;2023-02-03T12:11:39;8.40;99.90
21508;DHT22;10915;54.352;9.074;2023-02-03T12:14:36;8.30;99.90
21508;DHT22;10915;54.352;9.074;2023-02-03T12:17:29;8.30;99.90
21508;DHT22;10915;54.352;9.074;2023-02-03T12:28:16;8.20;99.90
21508;DHT22;10915;54.352;9.074;2023-02-03T12:30:57;8.10;99.90
21508;DHT22;10915;54.352;9.074;2023-02-03T12:33:42;8.10;99.90
21508;DHT22;10915;54.352;9.074;2023-02-03T12:36:14;8.10;99.90
21508;DHT22;10915;54.352;9.074;2023-02-03T12:38:58;8.00;99.90
21508;DHT22;10915;54.352;9.074;2023-02-03T12:41:33;8.00;99.90
21508;DHT22;10915;54.352;9.074;2023-02-03T12:44:06;8.00;99.90
21508;DHT22;10915;54.352;9.074;2023-02-03T12:51:42;8.00;99.90
21508;DHT22;10915;54.352;9.074;2023-02-03T12:54:22;8.10;99.90
21508;DHT22;10915;54.352;9.074;2023-02-03T12:56:50;8.10;99.90
21508;DHT22;10915;54.352;9.074;2023-02-03T12:59:22;8.10;99.90
21508;DHT22;10915;54.352;9.074;2023-02-03T13:01:49;8.00;99.90
21508;DHT22;10915;54.352;9.074;2023-02-03T13:14:36;8.00;99.90
21508;DHT22;10915;54.352;9.074;2023-02-03T13:20:01;8.00;99.90
21508;DHT22;10915;54.352;9.074;2023-02-03T13:22:29;8.00;99.90
21508;DHT22;10915;54.352;9.074;2023-02-03T13:25:01;8.00;99.90
21508;DHT22;10915;54.352;9.074;2023-02-03T13:27:36;7.90;99.90
21508;DHT22;10915;54.352;9.074;2023-02-03T13:30:17;7.90;99.90
21508;DHT22;10915;54.352;9.074;2023-02-03T13:43:48;7.80;99.90
21508;DHT22;10915;54.352;9.074;2023-02-03T13:46:25;7.80;99.90
21508;DHT22;10915;54.352;9.074;2023-02-03T13:48:53;7.80;99.90
21508;DHT22;10915;54.352;9.074;2023-02-03T13:51:24;7.80;99.90
21508;DHT22;10915;54.352;9.074;2023-02-03T13:54:11;7.80;99.90
21508;DHT22;10915;54.352;9.074;2023-02-03T13:56:39;7.80;99.90
21508;DHT22;10915;54.352;9.074;2023-02-03T14:01:41;7.80;99.90
21508;DHT22;10915;54.352;9.074;2023-02-03T14:07:24;7.80;99.90
21508;DHT22;10915;54.352;9.074;2023-02-03T14:12:54;7.70;99.90
21508;DHT22;10915;54.352;9.074;2023-02-03T14:17:59;7.80;99.90
21508;DHT22;10915;54.352;9.074;2023-02-03T14:23:05;7.80;99.90
21508;DHT22;10915;54.352;9.074;2023-02-03T14:25:56;7.80;99.90
21508;DHT22;10915;54.352;9.074;2023-02-03T14:31:18;7.80;99.90
21508;DHT22;10915;54.352;9.074;2023-02-03T14:36:36;7.70;99.90
21508;DHT22;10915;54.352;9.074;2023-02-03T14:53:29;7.70;99.90
21508;DHT22;10915;54.352;9.074;2023-02-03T14:58:44;7.60;99.90
21508;DHT22;10915;54.352;9.074;2023-02-03T15:06:40;7.60;99.90
21508;DHT22;10915;54.352;9.074;2023-02-03T15:09:38;7.60;99.90
21508;DHT22;10915;54.352;9.074;2023-02-03T15:14:40;7.50;99.90
21508;DHT22;10915;54.352;9.074;2023-02-03T15:17:23;7.50;99.90
21508;DHT22;10915;54.352;9.074;2023-02-03T15:19:50;7.50;99.90
21508;DHT22;10915;54.352;9.074;2023-02-03T15:24:44;7.40;99.90
21508;DHT22;10915;54.352;9.074;2023-02-03T15:27:24;7.40;99.90
21508;DHT22;10915;54.352;9.074;2023-02-03T15:29:50;7.40;99.90
21508;DHT22;10915;54.352;9.074;2023-02-03T15:32:32;7.40;99.90
21508;DHT22;10915;54.352;9.074;2023-02-03T15:35:04;7.40;99.90
21508;DHT22;10915;54.352;9.074;2023-02-03T15:37:42;7.40;99.90
21508;DHT22;10915;54.352;9.074;2023-02-03T15:40:21;7.40;99.90
21508;DHT22;10915;54.352;9.074;2023-02-03T15:45:29;7.40;99.90
21508;DHT22;10915;54.352;9.074;2023-02-03T15:48:07;7.40;99.90
21508;DHT22;10915;54.352;9.074;2023-02-03T15:50:41;7.40;99.90
21508;DHT22;10915;54.352;9.074;2023-02-03T15:53:24;7.40;99.90
21508;DHT22;10915;54.352;9.074;2023-02-03T15:55:54;7.40;99.90
21508;DHT22;10915;54.352;9.074;2023-02-03T15:58:25;7.40;99.90
21508;DHT22;10915;54.352;9.074;2023-02-03T16:00:53;7.40;99.90
21508;DHT22;10915;54.352;9.074;2023-02-03T16:03:41;7.40;99.90
21508;DHT22;10915;54.352;9.074;2023-02-03T16:08:44;7.40;99.90
21508;DHT22;10915;54.352;9.074;2023-02-03T16:13:56;7.40;99.90
21508;DHT22;10915;54.352;9.074;2023-02-03T16:19:01;7.40;99.90
21508;DHT22;10915;54.352;9.074;2023-02-03T16:21:42;7.40;99.90
21508;DHT22;10915;54.352;9.074;2023-02-03T16:24:41;7.40;99.90
21508;DHT22;10915;54.352;9.074;2023-02-03T16:33:20;7.30;99.90
21508;DHT22;10915;54.352;9.074;2023-02-03T16:36:12;7.20;99.90
21508;DHT22;10915;54.352;9.074;2023-02-03T16:39:00;7.20;99.90
21508;DHT22;10915;54.352;9.074;2023-02-03T16:41:45;7.10;99.90
21508;DHT22;10915;54.352;9.074;2023-02-03T16:44:29;7.10;99.90
21508;DHT22;10915;54.352;9.074;2023-02-03T16:50:05;7.00;99.90
21508;DHT22;10915;54.352;9.074;2023-02-03T16:52:53;7.00;99.90
21508;DHT22;10915;54.352;9.074;2023-02-03T16:55:18;7.00;99.90
21508;DHT22;10915;54.352;9.074;2023-02-03T16:57:44;7.00;99.90
21508;DHT22;10915;54.352;9.074;2023-02-03T17:00:11;6.90;99.90
21508;DHT22;10915;54.352;9.074;2023-02-03T17:02:37;6.90;99.90
21508;DHT22;10915;54.352;9.074;2023-02-03T17:05:03;7.00;99.90
21508;DHT22;10915;54.352;9.074;2023-02-03T17:07:28;6.90;99.90
21508;DHT22;10915;54.352;9.074;2023-02-03T17:09:54;7.00;99.90
21508;DHT22;10915;54.352;9.074;2023-02-03T17:12:20;7.00;99.90
21508;DHT22;10915;54.352;9.074;2023-02-03T17:14:45;7.00;99.90
21508;DHT22;10915;54.352;9.074;2023-02-03T17:17:11;7.00;99.90
21508;DHT22;10915;54.352;9.074;2023-02-03T17:19:37;7.00;99.90
21508;DHT22;10915;54.352;9.074;2023-02-03T17:22:02;7.10;99.90
21508;DHT22;10915;54.352;9.074;2023-02-03T17:24:28;7.00;99.90
21508;DHT22;10915;54.352;9.074;2023-02-03T17:26:53;7.10;99.90
21508;DHT22;10915;54.352;9.074;2023-02-03T17:29:19;7.10;99.90
